Time;durP1;ratioP1;P1;durP2;ratioP2;P2;SDS_P1;SDS_P2;PMS_P1;PMS_P2;Temp;Humidity;BMP_temperature;BMP_pressure;BME280_temperature;BME280_humidity;BME280_pressure;Samples;Min_cycle;Max_cycle;Signal;HPM_P1;HPM_P2
2021/12/14 00:02:27;;;;;;;57.58;27.70;;;7.00;58.80;;;;;;4851161;23;20469;-92
2021/12/14 00:04:53;;;;;;;64.72;30.35;;;7.00;59.00;;;;;;4865977;29;20034;-95
2021/12/14 00:07:20;;;;;;;61.65;28.40;;;7.00;58.90;;;;;;4872347;29;20040;-94
2021/12/14 00:09:49;;;;;;;54.75;26.65;;;6.80;58.60;;;;;;4860652;29;20045;-94
2021/12/14 00:19:01;;;;;;;58.22;27.65;;;6.60;59.50;;;;;;4844834;29;20061;-95
2021/12/14 00:21:30;;;;;;;57.35;29.35;;;6.70;59.10;;;;;;4832078;29;20061;-96
2021/12/14 00:24:06;;;;;;;54.40;27.50;;;6.70;59.40;;;;;;4862920;29;20529;-95
2021/12/14 00:26:46;;;;;;;53.30;27.45;;;6.70;58.90;;;;;;4853212;29;20398;-95
2021/12/14 00:29:28;;;;;;;52.22;26.20;;;6.80;59.50;;;;;;4845650;29;20038;-96
2021/12/14 00:31:57;;;;;;;47.28;24.13;;;6.80;58.00;;;;;;4866701;29;20025;-89
2021/12/14 00:34:35;;;;;;;48.58;24.05;;;6.60;58.30;;;;;;4874566;29;20053;-88
2021/12/14 00:37:39;;;;;;;49.70;24.42;;;6.50;58.40;;;;;;4855340;29;20035;-88
2021/12/14 00:40:14;;;;;;;46.25;24.25;;;6.50;58.40;;;;;;4848082;29;20125;-96
2021/12/14 00:42:40;;;;;;;56.90;26.55;;;6.20;59.00;;;;;;4859502;24;20031;-96
2021/12/14 00:45:06;;;;;;;66.15;29.73;;;5.90;60.10;;;;;;4840995;29;20027;-95
2021/12/14 00:47:32;;;;;;;57.53;29.27;;;6.00;60.00;;;;;;4873125;29;20114;-96
2021/12/14 00:49:58;;;;;;;51.15;24.95;;;6.30;59.50;;;;;;4878531;29;20021;-94
2021/12/14 00:52:24;;;;;;;47.65;23.67;;;6.30;57.70;;;;;;4856051;29;20061;-90
2021/12/14 00:54:50;;;;;;;45.92;24.98;;;6.20;58.60;;;;;;4868190;29;20100;-89
2021/12/14 00:59:43;;;;;;;45.50;23.75;;;6.60;57.90;;;;;;4866323;29;20086;-94
2021/12/14 01:02:20;;;;;;;44.20;23.15;;;6.30;57.50;;;;;;4869857;29;20058;-91
2021/12/14 01:04:59;;;;;;;47.08;22.98;;;6.20;58.30;;;;;;4887645;29;20060;-95
2021/12/14 01:07:28;;;;;;;41.38;20.85;;;6.20;58.30;;;;;;4870356;29;20030;-95
2021/12/14 01:09:57;;;;;;;42.42;21.92;;;5.70;58.40;;;;;;4865613;29;20113;-93
2021/12/14 01:12:39;;;;;;;48.33;23.33;;;5.40;59.80;;;;;;4889434;29;20486;-90
2021/12/14 01:15:29;;;;;;;63.90;31.23;;;5.30;60.70;;;;;;4873386;29;20048;-92
2021/12/14 01:18:15;;;;;;;44.87;22.13;;;5.50;61.00;;;;;;4853343;29;20488;-91
2021/12/14 01:20:46;;;;;;;46.22;23.90;;;5.60;60.40;;;;;;4866398;29;20339;-90
2021/12/14 01:23:28;;;;;;;48.05;23.50;;;5.30;60.80;;;;;;4847421;29;20029;-89
2021/12/14 01:25:58;;;;;;;56.38;27.00;;;5.50;60.30;;;;;;4859593;29;20033;-92
2021/12/14 01:28:26;;;;;;;;;;;5.30;62.20;;;;;;4862040;29;20025;-89
2021/12/14 01:31:42;;;;;;;56.08;26.10;;;5.20;61.90;;;;;;4877605;29;19919;-88
2021/12/14 01:33:53;;;;;;;52.75;24.73;;;5.20;62.80;;;;;;4842772;29;20086;-91
2021/12/14 01:36:26;;;;;;;48.42;24.50;;;5.60;61.30;;;;;;4873377;29;20061;-90
2021/12/14 01:39:21;;;;;;;44.30;23.30;;;5.70;60.80;;;;;;4861523;24;20049;-90
2021/12/14 01:41:55;;;;;;;50.30;25.00;;;5.60;60.10;;;;;;4861325;29;20506;-86
2021/12/14 01:44:49;;;;;;;70.57;32.25;;;5.90;60.00;;;;;;4861624;29;20132;-88
2021/12/14 01:47:37;;;;;;;67.25;30.50;;;5.40;61.50;;;;;;4858189;29;20454;-89
2021/12/14 01:50:09;;;;;;;76.07;32.25;;;5.40;61.70;;;;;;4850143;29;20034;-88
2021/12/14 01:55:35;;;;;;;45.40;24.25;;;5.10;63.20;;;;;;4837102;29;20053;-87
2021/12/14 01:58:06;;;;;;;52.83;25.17;;;5.00;63.10;;;;;;4827181;29;20129;-87
2021/12/14 02:01:04;;;;;;;79.80;35.58;;;5.10;62.90;;;;;;4827230;29;20038;-88
2021/12/14 02:03:57;;;;;;;48.38;23.33;;;5.50;61.80;;;;;;4810453;29;20090;-88
2021/12/14 02:06:29;;;;;;;43.85;22.08;;;5.60;60.10;;;;;;4809162;29;20074;-87
2021/12/14 02:08:59;;;;;;;46.25;22.63;;;5.90;60.00;;;;;;4819965;29;20094;-88
2021/12/14 02:11:25;;;;;;;;;;;6.10;59.30;;;;;;4824710;29;20037;-85
2021/12/14 02:13:54;;;;;;;40.83;20.92;;;6.20;59.00;;;;;;4808667;29;19924;-88
2021/12/14 02:16:21;;;;;;;41.67;20.83;;;5.80;58.30;;;;;;4808518;29;20403;-88
2021/12/14 02:19:04;;;;;;;44.00;21.92;;;5.80;58.60;;;;;;4824122;29;20052;-89
2021/12/14 02:21:31;;;;;;;41.97;21.17;;;5.60;58.30;;;;;;4808655;29;20031;-88
2021/12/14 02:23:59;;;;;;;43.20;20.52;;;5.30;59.10;;;;;;4824180;29;20043;-89
2021/12/14 02:26:42;;;;;;;44.05;21.38;;;5.20;60.40;;;;;;4823725;29;20069;-86
2021/12/14 02:29:18;;;;;;;46.88;23.25;;;5.40;60.50;;;;;;4808491;29;20041;-86
2021/12/14 02:31:44;;;;;;;63.83;29.85;;;5.60;60.30;;;;;;4831000;29;20042;-87
2021/12/14 02:35:13;;;;;;;81.25;36.42;;;6.10;59.30;;;;;;4829127;29;20162;-86
2021/12/14 02:37:47;;;;;;;53.72;25.77;;;6.20;59.30;;;;;;4833946;29;20034;-86
2021/12/14 02:40:20;;;;;;;47.45;22.50;;;6.10;59.10;;;;;;4844495;29;20050;-86
2021/12/14 02:42:51;;;;;;;40.33;20.30;;;6.00;58.70;;;;;;4859961;29;20438;-86
2021/12/14 02:45:23;;;;;;;38.03;18.95;;;5.70;59.50;;;;;;4874928;29;20029;-85
2021/12/14 02:48:08;;;;;;;46.85;21.95;;;5.80;59.70;;;;;;4861675;29;20037;-85
2021/12/14 02:50:34;;;;;;;42.17;20.80;;;5.50;60.60;;;;;;4860955;29;20058;-84
2021/12/14 02:55:27;;;;;;;47.03;21.63;;;5.60;60.70;;;;;;4860234;29;20048;-85
2021/12/14 02:57:57;;;;;;;51.03;23.35;;;5.90;59.90;;;;;;4860758;29;20065;-85
2021/12/14 03:00:49;;;;;;;82.80;35.92;;;5.90;59.80;;;;;;4860455;29;20030;-85
2021/12/14 03:03:17;;;;;;;49.28;21.73;;;5.50;60.70;;;;;;4860076;29;20166;-86
2021/12/14 03:05:45;;;;;;;53.45;22.25;;;4.90;62.90;;;;;;4860846;29;20378;-83
2021/12/14 03:08:24;;;;;;;44.63;21.70;;;4.90;63.30;;;;;;4860305;29;20418;-85
2021/12/14 03:11:10;;;;;;;44.67;21.45;;;5.00;62.80;;;;;;4843286;29;20124;-84
2021/12/14 03:14:03;;;;;;;44.97;21.55;;;5.20;62.30;;;;;;5088141;27;1361428;-84
2021/12/14 03:16:34;;;;;;;46.97;21.85;;;5.40;61.90;;;;;;5088180;28;20343;-84
2021/12/14 03:19:00;;;;;;;50.10;23.02;;;5.70;61.50;;;;;;5092767;28;20061;-83
2021/12/14 03:21:37;;;;;;;47.00;22.60;;;5.80;60.80;;;;;;5092911;28;20028;-85
2021/12/14 03:24:09;;;;;;;52.33;24.27;;;6.10;60.40;;;;;;5092619;28;20027;-84
2021/12/14 03:26:39;;;;;;;61.00;27.40;;;6.40;60.10;;;;;;5100099;28;20103;-84
2021/12/14 03:29:16;;;;;;;44.50;20.80;;;6.30;59.60;;;;;;5087602;28;20039;-84
2021/12/14 03:31:46;;;;;;;40.67;19.60;;;6.00;60.40;;;;;;5081491;28;20055;-83
2021/12/14 03:34:19;;;;;;;39.17;18.65;;;5.80;60.70;;;;;;5073371;28;20036;-83
2021/12/14 03:36:53;;;;;;;35.45;18.00;;;5.60;61.60;;;;;;5073405;28;20090;-83
2021/12/14 03:39:32;;;;;;;37.35;19.23;;;5.70;61.90;;;;;;5080135;28;20025;-82
2021/12/14 03:42:06;;;;;;;39.15;20.02;;;5.70;62.20;;;;;;5073896;28;20024;-83
2021/12/14 03:44:36;;;;;;;40.22;19.80;;;5.30;62.70;;;;;;5072901;28;20103;-84
2021/12/14 03:47:15;;;;;;;43.17;20.35;;;5.20;63.60;;;;;;5087814;28;20031;-84
2021/12/14 03:49:47;;;;;;;46.35;21.98;;;5.00;64.60;;;;;;5098140;28;20019;-84
2021/12/14 03:52:16;;;;;;;50.33;22.10;;;5.00;64.80;;;;;;5072639;28;20036;-84
2021/12/14 03:54:43;;;;;;;51.95;23.10;;;5.10;64.90;;;;;;5072547;28;20031;-84
2021/12/14 03:57:26;;;;;;;60.15;22.98;;;5.20;65.00;;;;;;5088113;28;20093;-83
2021/12/14 03:59:52;;;;;;;63.72;24.67;;;5.80;63.50;;;;;;5106097;28;20028;-83
2021/12/14 04:02:19;;;;;;;56.88;24.13;;;5.80;62.10;;;;;;5072766;28;20541;-84
2021/12/14 04:04:52;;;;;;;51.97;22.70;;;6.00;62.60;;;;;;5072316;28;20057;-83
2021/12/14 04:07:19;;;;;;;50.85;22.10;;;6.30;61.20;;;;;;5077046;28;20494;-84
2021/12/14 04:09:54;;;;;;;49.72;23.02;;;6.20;61.20;;;;;;5072356;28;20123;-83
2021/12/14 04:15:44;;;;;;;54.60;23.42;;;5.80;62.70;;;;;;4989277;28;20051;-85
2021/12/14 04:18:11;;;;;;;46.22;19.95;;;6.10;62.40;;;;;;4973573;28;20062;-84
2021/12/14 04:20:40;;;;;;;46.30;21.85;;;6.40;61.60;;;;;;4990735;28;20454;-85
2021/12/14 04:23:18;;;;;;;47.47;22.85;;;6.50;61.30;;;;;;4972556;28;20081;-84
2021/12/14 04:25:46;;;;;;;55.85;24.00;;;6.80;60.60;;;;;;4976626;28;20042;-84
2021/12/14 04:28:15;;;;;;;46.80;22.35;;;6.20;61.60;;;;;;4977224;28;20046;-84
2021/12/14 04:30:45;;;;;;;52.47;22.90;;;6.50;61.50;;;;;;4977535;28;20130;-84
2021/12/14 04:33:17;;;;;;;54.50;22.98;;;6.20;61.80;;;;;;4959918;28;20296;-86
2021/12/14 04:36:17;;;;;;;61.03;24.00;;;6.10;62.20;;;;;;4959903;28;20027;-85
2021/12/14 04:38:58;;;;;;;45.47;20.88;;;6.40;62.60;;;;;;4959845;28;20030;-86
2021/12/14 04:52:32;;;;;;;49.55;21.35;;;6.10;62.70;;;;;;4993159;28;20042;-85
2021/12/14 04:55:08;;;;;;;48.97;22.25;;;6.10;62.90;;;;;;4976447;28;20046;-85
2021/12/14 04:57:43;;;;;;;54.50;24.23;;;6.70;62.10;;;;;;4973590;28;20474;-86
2021/12/14 05:00:24;;;;;;;45.58;23.15;;;7.00;61.20;;;;;;4969773;28;20027;-86
2021/12/14 05:02:58;;;;;;;52.33;22.90;;;7.30;59.90;;;;;;4973560;28;20026;-87
2021/12/14 05:05:46;;;;;;;52.55;22.30;;;7.40;59.30;;;;;;4972499;28;20106;-85
2021/12/14 05:10:53;;;;;;;51.28;22.95;;;7.20;59.90;;;;;;4995760;28;20125;-85
2021/12/14 05:13:36;;;;;;;48.95;20.77;;;7.00;60.20;;;;;;4963854;28;20061;-85
2021/12/14 05:18:49;;;;;;;48.38;22.75;;;7.40;59.80;;;;;;4999003;23;20445;-86
2021/12/14 05:21:30;;;;;;;47.55;23.50;;;7.70;59.30;;;;;;4954103;29;20030;-85
2021/12/14 05:23:57;;;;;;;46.03;22.60;;;7.80;59.50;;;;;;4957560;29;20027;-84
2021/12/14 05:26:23;;;;;;;50.05;24.55;;;7.70;59.30;;;;;;4940330;29;20483;-86
2021/12/14 05:28:49;;;;;;;54.67;23.85;;;7.40;60.20;;;;;;4956310;29;20028;-86
2021/12/14 05:31:16;;;;;;;49.22;24.02;;;7.40;60.50;;;;;;4956279;29;20034;-84
2021/12/14 05:33:42;;;;;;;53.85;24.35;;;7.50;60.40;;;;;;4947705;23;20364;-86
2021/12/14 05:36:14;;;;;;;52.78;24.05;;;7.40;60.50;;;;;;4955132;28;20118;-85
2021/12/14 05:43:06;;;;;;;53.53;24.00;;;7.60;60.10;;;;;;4957413;28;20023;-84
2021/12/14 05:43:57;;;;;;;50.25;24.83;;;7.70;59.90;;;;;;4956950;29;20028;-85
2021/12/14 05:47:00;;;;;;;54.03;25.40;;;7.00;61.40;;;;;;4957243;28;20027;-85
2021/12/14 05:49:28;;;;;;;53.53;23.90;;;7.10;61.20;;;;;;4955641;29;20373;-85
2021/12/14 05:51:56;;;;;;;71.70;28.70;;;7.60;61.00;;;;;;4956703;28;20090;-85
2021/12/14 05:54:26;;;;;;;58.03;26.52;;;7.60;60.50;;;;;;4956646;28;20098;-84
2021/12/14 05:56:54;;;;;;;55.97;24.48;;;7.60;60.30;;;;;;4957054;28;20023;-88
2021/12/14 05:59:22;;;;;;;68.13;26.70;;;7.40;61.10;;;;;;4945250;29;20070;-87
2021/12/14 06:01:50;;;;;;;83.40;27.80;;;7.30;61.00;;;;;;4937627;29;20024;-86
2021/12/14 06:04:17;;;;;;;81.80;30.35;;;7.20;61.40;;;;;;4936098;29;20087;-86
2021/12/14 06:06:49;;;;;;;64.80;25.75;;;7.50;61.00;;;;;;4936314;29;20047;-85
2021/12/14 06:09:33;;;;;;;74.28;26.27;;;7.60;60.90;;;;;;4921712;29;20067;-84
2021/12/14 06:12:22;;;;;;;67.80;25.48;;;7.40;61.50;;;;;;4916827;29;20135;-84
2021/12/14 06:14:55;;;;;;;62.20;27.15;;;7.50;61.60;;;;;;4914605;29;20488;-85
2021/12/14 06:17:24;;;;;;;55.25;23.13;;;7.90;60.60;;;;;;4915383;29;20060;-88
2021/12/14 06:19:53;;;;;;;66.07;23.77;;;7.90;60.80;;;;;;4915586;29;20460;-86
2021/12/14 06:22:21;;;;;;;59.35;23.65;;;7.80;60.90;;;;;;4916025;29;20032;-86
2021/12/14 06:25:11;;;;;;;77.40;28.40;;;7.80;60.90;;;;;;4915258;29;20112;-88
2021/12/14 06:30:55;;;;;;;83.53;32.78;;;7.20;61.80;;;;;;5001550;23;20059;-84
2021/12/14 06:33:26;;;;;;;76.82;33.30;;;7.50;62.00;;;;;;4973842;28;20038;-86
2021/12/14 06:35:54;;;;;;;89.03;33.13;;;7.80;61.30;;;;;;4957627;28;20121;-84
2021/12/14 06:39:13;;;;;;;90.65;35.03;;;8.20;60.70;;;;;;4957627;28;20042;-84
2021/12/14 06:41:38;;;;;;;108.97;36.53;;;8.10;60.00;;;;;;4895749;29;20548;-84
2021/12/14 06:44:04;;;;;;;76.10;31.00;;;8.20;60.40;;;;;;4880602;29;20038;-87
2021/12/14 06:46:37;;;;;;;79.78;29.13;;;8.20;60.20;;;;;;4896490;29;20039;-87
2021/12/14 06:49:12;;;;;;;107.55;41.80;;;8.20;60.40;;;;;;4881167;29;20045;-89
2021/12/14 06:51:47;;;;;;;91.05;27.52;;;8.20;60.10;;;;;;4875420;29;20031;-85
2021/12/14 06:54:20;;;;;;;74.65;26.95;;;8.10;60.60;;;;;;4897055;29;20048;-84
2021/12/14 06:56:51;;;;;;;71.43;27.67;;;8.10;61.10;;;;;;4896898;29;20032;-85
2021/12/14 06:59:20;;;;;;;116.55;42.70;;;8.30;60.20;;;;;;4896818;29;20055;-86
2021/12/14 07:01:51;;;;;;;74.28;28.85;;;8.40;60.50;;;;;;4881208;29;20303;-85
2021/12/14 07:04:24;;;;;;;77.03;31.00;;;8.10;60.60;;;;;;4880809;29;20033;-85
2021/12/14 07:06:54;;;;;;;75.25;24.90;;;8.40;60.10;;;;;;4881078;29;20043;-85
2021/12/14 07:09:37;;;;;;;76.88;25.85;;;7.60;61.00;;;;;;4933953;28;20035;-85
2021/12/14 07:12:08;;;;;;;71.03;25.02;;;7.40;62.40;;;;;;4957584;28;20062;-85
2021/12/14 07:14:54;;;;;;;62.17;26.83;;;7.40;63.00;;;;;;4957693;28;20027;-88
2021/12/14 07:17:30;;;;;;;60.38;24.30;;;7.40;62.70;;;;;;4957537;28;20385;-85
2021/12/14 07:20:02;;;;;;;84.05;27.65;;;7.30;62.80;;;;;;4957522;28;20031;-85
2021/12/14 07:22:50;;;;;;;73.47;25.92;;;7.10;63.30;;;;;;4957587;28;20049;-86
2021/12/14 07:25:24;;;;;;;76.30;29.63;;;7.50;63.20;;;;;;4957336;28;20023;-88
2021/12/14 07:28:15;;;;;;;69.65;26.42;;;7.90;61.60;;;;;;4957471;28;20054;-89
2021/12/14 07:30:47;;;;;;;75.43;28.48;;;8.20;61.30;;;;;;4974405;28;20483;-88
2021/12/14 07:34:08;;;;;;;73.75;27.35;;;8.30;60.10;;;;;;4957346;28;20099;-86
2021/12/14 07:36:37;;;;;;;63.40;23.40;;;8.20;60.40;;;;;;4974574;28;20026;-90
2021/12/14 07:39:07;;;;;;;63.40;25.35;;;8.00;60.80;;;;;;4957452;28;20054;-86
2021/12/14 07:41:49;;;;;;;72.47;25.98;;;8.00;60.50;;;;;;4974192;28;20113;-86
2021/12/14 07:44:20;;;;;;;65.43;25.13;;;8.30;60.50;;;;;;4957246;28;20058;-89
2021/12/14 07:46:53;;;;;;;77.28;25.13;;;8.50;60.90;;;;;;4974409;28;20030;-86
2021/12/14 07:49:20;;;;;;;57.45;21.48;;;8.50;60.20;;;;;;4974423;28;20054;-89
2021/12/14 07:51:49;;;;;;;44.22;19.15;;;8.80;59.50;;;;;;4957404;28;20035;-88
2021/12/14 07:54:19;;;;;;;56.92;21.60;;;8.80;59.00;;;;;;4957299;28;20490;-88
2021/12/14 08:13:09;;;;;;;78.22;25.55;;;8.90;58.20;;;;;;5142785;23;20513;-89
2021/12/14 08:15:43;;;;;;;133.40;27.05;;;8.70;58.50;;;;;;4961016;28;20027;-88
2021/12/14 08:18:14;;;;;;;72.53;24.88;;;8.50;58.90;;;;;;4960634;28;20057;-87
2021/12/14 08:20:44;;;;;;;61.85;21.67;;;8.80;58.90;;;;;;4960983;28;20054;-88
2021/12/14 08:42:36;;;;;;;48.25;20.95;;;8.60;60.00;;;;;;5616866;23;20059;-89
2021/12/14 08:45:24;;;;;;;70.00;20.45;;;9.00;58.60;;;;;;4941032;29;20039;-91
2021/12/14 08:48:02;;;;;;;43.90;19.50;;;9.00;57.90;;;;;;4941078;29;20033;-89
2021/12/14 08:50:31;;;;;;;52.75;20.35;;;9.10;58.40;;;;;;4953098;28;20066;-90
2021/12/14 08:52:58;;;;;;;89.65;23.15;;;9.00;58.30;;;;;;4960259;28;20045;-90
2021/12/14 08:55:31;;;;;;;69.32;21.60;;;9.40;57.40;;;;;;4960032;28;20031;-91
2021/12/14 08:57:57;;;;;;;49.35;19.95;;;9.90;56.60;;;;;;4960097;28;20029;-89
2021/12/14 09:00:37;;;;;;;48.65;22.95;;;10.00;56.30;;;;;;4960270;28;20133;-90
2021/12/14 09:03:05;;;;;;;51.72;22.05;;;10.50;55.60;;;;;;4960070;28;20026;-89
2021/12/14 09:05:39;;;;;;;45.88;20.45;;;10.60;54.50;;;;;;4960170;28;20027;-90
2021/12/14 09:08:05;;;;;;;50.00;21.42;;;10.40;55.30;;;;;;4976775;28;20027;-91
2021/12/14 09:11:05;;;;;;;43.88;19.23;;;10.10;55.20;;;;;;4959704;28;20407;-90
2021/12/14 09:13:32;;;;;;;35.75;17.75;;;10.60;55.60;;;;;;4959878;28;20041;-90
2021/12/14 09:16:04;;;;;;;34.75;16.00;;;12.00;54.00;;;;;;4959416;28;20584;-92
2021/12/14 09:21:55;;;;;;;32.35;15.68;;;14.40;50.10;;;;;;4976292;28;20069;-92
2021/12/14 09:24:25;;;;;;;28.05;15.02;;;16.30;46.20;;;;;;5028847;23;20043;-84
2021/12/14 09:26:59;;;;;;;26.60;15.85;;;17.70;45.10;;;;;;4921153;29;20047;-87
2021/12/14 09:29:30;;;;;;;33.47;17.08;;;18.80;42.80;;;;;;4901655;29;20028;-86
2021/12/14 09:31:57;;;;;;;;;;;19.20;42.40;;;;;;4899595;29;20112;-88
2021/12/14 09:34:26;;;;;;;32.35;15.70;;;19.10;42.30;;;;;;4898166;29;19918;-89
2021/12/14 09:36:53;;;;;;;32.67;17.35;;;19.40;42.30;;;;;;4901411;29;20028;-89
2021/12/14 09:39:32;;;;;;;30.63;16.90;;;19.70;41.60;;;;;;4901970;29;20024;-91
2021/12/14 09:42:01;;;;;;;34.78;18.33;;;18.30;42.50;;;;;;4918765;29;20391;-91
2021/12/14 09:44:30;;;;;;;34.35;17.83;;;18.70;42.50;;;;;;4902294;29;20588;-89
2021/12/14 09:47:00;;;;;;;77.85;38.90;;;19.20;42.20;;;;;;4918785;29;20035;-90
2021/12/14 09:49:28;;;;;;;41.53;22.10;;;19.20;41.60;;;;;;4918658;29;20388;-92
2021/12/14 09:52:11;;;;;;;35.28;17.58;;;19.80;41.40;;;;;;4918362;29;20036;-91
2021/12/14 09:55:00;;;;;;;30.75;17.50;;;20.50;40.90;;;;;;4913350;29;20180;-93
2021/12/14 09:57:44;;;;;;;30.02;16.90;;;20.90;40.20;;;;;;4917611;29;20035;-93
2021/12/14 10:00:31;;;;;;;30.50;17.55;;;21.20;40.00;;;;;;4917872;29;20034;-90
2021/12/14 10:08:25;;;;;;;32.00;17.95;;;21.60;39.00;;;;;;5108316;23;20046;-88
2021/12/14 10:11:12;;;;;;;28.85;16.55;;;21.50;39.20;;;;;;4958623;28;20030;-90
2021/12/14 10:13:45;;;;;;;40.80;24.35;;;21.80;39.20;;;;;;4958259;28;20031;-88
2021/12/14 10:16:11;;;;;;;33.85;20.98;;;21.70;39.00;;;;;;4975708;28;20011;-88
2021/12/14 10:18:42;;;;;;;32.72;19.30;;;21.90;39.10;;;;;;5093357;23;20062;-93
2021/12/14 10:21:26;;;;;;;31.63;18.15;;;21.90;38.80;;;;;;4939108;28;20050;-94
2021/12/14 10:23:52;;;;;;;29.17;17.35;;;21.20;39.00;;;;;;4942011;28;20034;-95
2021/12/14 10:26:20;;;;;;;30.33;17.92;;;21.30;39.60;;;;;;4958300;28;20030;-95
2021/12/14 10:28:49;;;;;;;28.58;17.52;;;21.30;39.00;;;;;;4959190;28;20114;-94
2021/12/14 10:31:28;;;;;;;28.95;16.65;;;21.00;39.20;;;;;;4980026;28;20034;-95
2021/12/14 10:33:55;;;;;;;33.03;18.70;;;20.40;40.20;;;;;;4965374;28;20038;-94
2021/12/14 10:36:31;;;;;;;29.85;17.42;;;20.60;40.10;;;;;;4961097;28;20027;-94
2021/12/14 10:57:12;;;;;;;29.67;17.90;;;18.90;42.10;;;;;;6038831;23;20018;-89
2021/12/14 11:18:49;;;;;;;33.72;19.42;;;16.00;44.90;;;;;;5390956;23;20381;-84
2021/12/14 11:21:40;;;;;;;33.55;19.75;;;14.40;47.30;;;;;;4996296;28;20030;-83
2021/12/14 11:24:08;;;;;;;35.42;18.70;;;13.20;48.90;;;;;;4997963;28;20114;-83
2021/12/14 11:26:36;;;;;;;33.47;18.63;;;12.80;50.20;;;;;;4999194;28;20018;-83
2021/12/14 11:29:09;;;;;;;37.78;18.58;;;12.30;50.80;;;;;;5016484;28;20021;-83
2021/12/14 11:31:48;;;;;;;35.05;19.27;;;11.80;51.40;;;;;;5000117;28;20030;-81
2021/12/14 11:34:36;;;;;;;33.95;19.27;;;11.90;51.10;;;;;;4998140;28;20049;-90
2021/12/14 11:37:08;;;;;;;32.35;19.40;;;11.70;51.30;;;;;;5005049;28;20041;-83
2021/12/14 11:40:10;;;;;;;36.60;22.83;;;11.90;51.60;;;;;;5002003;28;20034;-84
2021/12/14 11:42:35;;;;;;;34.42;20.42;;;11.90;51.20;;;;;;4924144;29;20060;-82
2021/12/14 11:45:10;;;;;;;31.88;18.42;;;11.90;51.60;;;;;;4904027;29;20040;-96
2021/12/14 12:26:23;;;;;;;38.67;20.58;;;11.50;53.70;;;;;;5329418;23;20524;-96
2021/12/14 12:29:42;;;;;;;37.83;20.50;;;11.10;54.50;;;;;;4966672;28;20100;-91
2021/12/14 12:49:24;;;;;;;42.08;22.40;;;11.10;54.30;;;;;;4976554;28;20054;-93
2021/12/14 12:55:18;;;;;;;45.38;23.80;;;11.10;54.30;;;;;;5534093;23;20043;-95
2021/12/14 12:57:55;;;;;;;78.13;40.03;;;10.10;55.60;;;;;;4944435;29;20028;-85
2021/12/14 13:00:42;;;;;;;45.80;24.55;;;10.00;56.10;;;;;;4949699;29;20027;-95
2021/12/14 13:03:18;;;;;;;43.53;21.58;;;10.10;56.00;;;;;;4943296;29;20037;-90
2021/12/14 13:12:48;;;;;;;79.90;50.67;;;9.80;56.20;;;;;;5070990;23;20059;-86
2021/12/14 13:15:38;;;;;;;42.85;21.30;;;9.70;56.10;;;;;;4966035;28;20027;-88
2021/12/14 13:29:38;;;;;;;46.78;23.95;;;8.90;58.20;;;;;;5109176;23;19922;-85
2021/12/14 13:35:15;;;;;;;51.53;26.63;;;8.50;59.40;;;;;;4945292;23;20573;-85
2021/12/14 13:37:45;;;;;;;53.17;26.70;;;8.20;60.30;;;;;;4937132;29;20534;-84
2021/12/14 13:40:46;;;;;;;50.30;24.52;;;8.10;60.30;;;;;;4953032;29;20032;-84
2021/12/14 13:43:17;;;;;;;53.15;24.23;;;8.20;59.90;;;;;;4925635;29;20043;-85
2021/12/14 13:45:51;;;;;;;56.47;27.67;;;8.20;59.80;;;;;;4936856;29;20028;-84
2021/12/14 13:51:19;;;;;;;195.90;119.55;;;8.40;59.90;;;;;;5005578;23;20079;-86
2021/12/14 13:53:56;;;;;;;65.85;32.10;;;8.20;59.30;;;;;;4921030;29;20039;-88
2021/12/14 13:59:24;;;;;;;77.30;38.55;;;8.40;59.10;;;;;;4927657;23;20058;-86
2021/12/14 14:01:55;;;;;;;87.53;42.92;;;8.20;60.00;;;;;;4958457;28;20019;-85
2021/12/14 14:05:14;;;;;;;72.10;34.05;;;8.00;59.80;;;;;;4961852;23;20047;-84
2021/12/14 14:07:41;;;;;;;68.97;31.88;;;8.10;59.30;;;;;;4957020;28;20023;-84
2021/12/14 14:10:10;;;;;;;77.30;35.78;;;8.40;59.40;;;;;;4958884;28;20026;-81
2021/12/14 14:15:01;;;;;;;74.95;36.72;;;8.80;58.30;;;;;;5002345;23;20081;-83
2021/12/14 14:17:29;;;;;;;61.00;27.48;;;9.00;58.00;;;;;;4995682;28;20034;-84
2021/12/14 14:20:03;;;;;;;81.72;39.42;;;9.00;57.60;;;;;;4977979;28;20049;-83
2021/12/14 14:22:41;;;;;;;63.63;28.35;;;9.00;57.70;;;;;;4977620;28;20026;-83
2021/12/14 14:25:26;;;;;;;94.43;44.05;;;9.00;57.60;;;;;;4978120;28;20125;-85
2021/12/14 14:32:42;;;;;;;77.03;43.42;;;8.70;57.90;;;;;;4998448;28;20081;-86
2021/12/14 14:34:58;;;;;;;67.43;31.33;;;8.30;59.30;;;;;;4992587;28;20049;-85
2021/12/14 14:37:28;;;;;;;67.20;27.98;;;8.00;59.30;;;;;;4980501;28;20065;-87
2021/12/14 14:46:41;;;;;;;68.55;27.48;;;7.30;60.70;;;;;;5013967;23;20437;-86
2021/12/14 14:49:32;;;;;;;147.95;40.25;;;7.10;62.10;;;;;;4979259;28;20030;-86
2021/12/14 14:52:06;;;;;;;72.45;29.58;;;7.10;61.50;;;;;;4986992;23;20026;-86
2021/12/14 15:01:22;;;;;;;59.88;26.90;;;7.60;60.80;;;;;;5002868;23;20045;-87
2021/12/14 15:04:22;;;;;;;93.78;47.45;;;7.80;60.30;;;;;;4917558;29;20383;-86
2021/12/14 15:07:01;;;;;;;69.00;32.38;;;7.30;60.60;;;;;;4901682;29;20103;-86
2021/12/14 15:09:31;;;;;;;58.83;26.67;;;7.50;60.80;;;;;;4901154;29;20435;-85
2021/12/14 15:12:00;;;;;;;70.78;31.08;;;7.30;61.00;;;;;;4901590;29;20032;-85
2021/12/14 15:17:32;;;;;;;65.97;25.50;;;7.10;61.60;;;;;;5620366;23;20053;-86
2021/12/14 15:20:00;;;;;;;52.63;22.90;;;7.20;61.50;;;;;;4966764;28;20030;-85
2021/12/14 15:22:34;;;;;;;54.95;23.40;;;7.10;61.00;;;;;;4977878;28;20037;-85
2021/12/14 15:25:05;;;;;;;106.95;28.45;;;6.70;62.10;;;;;;4940502;29;20039;-91
2021/12/14 15:28:00;;;;;;;134.98;54.63;;;6.10;64.20;;;;;;4970971;28;20031;-84
2021/12/14 15:30:45;;;;;;;72.65;27.85;;;5.90;65.20;;;;;;4958687;28;20042;-85
2021/12/14 15:33:49;;;;;;;97.25;34.10;;;6.20;64.90;;;;;;4957362;28;20385;-85
2021/12/14 15:36:24;;;;;;;108.70;40.92;;;6.00;65.50;;;;;;5098634;23;20447;-89
2021/12/14 15:39:36;;;;;;;103.50;40.58;;;6.30;65.10;;;;;;4978129;28;20031;-84
2021/12/14 15:49:16;;;;;;;228.20;75.97;;;6.30;64.50;;;;;;4880902;29;20400;-89
2021/12/14 15:52:54;;;;;;;151.45;63.22;;;6.60;65.10;;;;;;4892306;29;20037;-88
2021/12/14 15:55:08;;;;;;;118.75;46.85;;;6.70;63.80;;;;;;4878187;29;20132;-85
2021/12/14 15:57:35;;;;;;;91.43;36.58;;;7.00;63.60;;;;;;4911523;29;20388;-85
2021/12/14 16:02:53;;;;;;;99.55;43.05;;;7.00;62.30;;;;;;4989983;23;20057;-85
2021/12/14 16:05:20;;;;;;;90.35;36.83;;;7.10;62.30;;;;;;4977458;28;20034;-93
2021/12/14 16:07:48;;;;;;;93.07;39.60;;;7.40;61.80;;;;;;4998414;28;20013;-85
2021/12/14 16:10:22;;;;;;;78.75;33.78;;;7.50;60.80;;;;;;4991501;28;20117;-85
2021/12/14 16:16:07;;;;;;;91.53;40.80;;;7.80;59.70;;;;;;5416498;23;20069;-88
2021/12/14 16:18:33;;;;;;;199.80;77.93;;;7.50;60.20;;;;;;4959911;28;20025;-84
2021/12/14 16:21:00;;;;;;;181.77;73.47;;;7.70;60.10;;;;;;4965375;28;20125;-87
2021/12/14 16:29:08;;;;;;;111.97;45.72;;;7.30;61.40;;;;;;5079242;23;20093;-85
2021/12/14 16:31:41;;;;;;;108.80;51.78;;;7.20;60.90;;;;;;4902474;23;20383;-86
2021/12/14 16:34:17;;;;;;;135.23;63.38;;;7.50;61.20;;;;;;4941782;29;20035;-89
2021/12/14 16:36:54;;;;;;;132.27;65.47;;;7.60;60.30;;;;;;4942270;29;20031;-85
2021/12/14 16:39:57;;;;;;;228.60;96.93;;;7.70;60.30;;;;;;4948930;28;20035;-88
2021/12/14 16:42:25;;;;;;;99.25;45.25;;;7.60;60.60;;;;;;4955501;28;20054;-85
2021/12/14 16:44:58;;;;;;;295.15;180.02;;;7.20;61.40;;;;;;4960836;28;20019;-85
2021/12/14 16:47:28;;;;;;;146.65;78.20;;;7.20;61.80;;;;;;4959273;28;20023;-85
2021/12/14 16:50:06;;;;;;;176.30;86.47;;;7.30;61.80;;;;;;4960316;28;20077;-86
2021/12/14 17:01:52;;;;;;;74.35;32.22;;;7.00;61.30;;;;;;5594182;23;20470;-88
2021/12/14 17:04:37;;;;;;;150.70;79.18;;;6.90;61.60;;;;;;4959102;28;20027;-87
2021/12/14 17:07:10;;;;;;;82.03;38.33;;;7.40;60.80;;;;;;4925838;29;20371;-88
2021/12/14 17:12:30;;;;;;;98.28;45.38;;;7.50;60.00;;;;;;4963817;23;20075;-91
2021/12/14 17:15:15;;;;;;;57.88;26.70;;;7.40;60.30;;;;;;4940524;29;20058;-90
2021/12/14 17:17:59;;;;;;;65.03;28.42;;;7.00;61.50;;;;;;4940068;29;20046;-85
2021/12/14 17:23:24;;;;;;;71.68;32.55;;;6.20;63.80;;;;;;4944385;23;20057;-86
2021/12/14 17:36:08;;;;;;;68.60;30.23;;;6.40;63.10;;;;;;5025699;23;20426;-85
2021/12/14 17:39:17;;;;;;;105.70;41.85;;;5.90;64.80;;;;;;4956404;28;20051;-85
2021/12/14 17:41:53;;;;;;;142.95;66.10;;;6.10;64.30;;;;;;4960500;28;20031;-86
2021/12/14 17:51:05;;;;;;;142.75;65.13;;;6.90;62.60;;;;;;4876592;29;20068;-89
2021/12/14 17:56:23;;;;;;;133.80;61.75;;;7.30;61.00;;;;;;4622116;23;10002309;-89
2021/12/14 18:01:57;;;;;;;115.13;57.08;;;7.50;60.00;;;;;;4938794;29;20058;-89
2021/12/14 18:04:29;;;;;;;97.57;48.25;;;7.10;61.40;;;;;;4926037;29;20122;-92
2021/12/14 18:06:56;;;;;;;89.60;42.72;;;7.10;61.30;;;;;;4927004;29;20028;-91